»·PEaware :: N47332 KLAX-KSAN

N47332 :: KLAX-KSAN

FLIGHT INFORMATION

Flight Status: Arrived
Operator: Privately registered:
United States
More flights under this callsign
Pilot: Sergei F. (8485)
Aircraft: CESSNA 172 SKYHAWK
(C172)
More flights by this aircraft type
Origin: KLAX Los Angeles Intl
United States
Destination: KSAN San Diego Intl-Lindbergh
United States
More flights between these airports :: More routes between these airports
Route: +
File this flight plan on PilotEdge
Remarks:
Altitude:
(Current/Filed)
3,000ft
Speed:
(Current/Filed)
0kts
Departed: 07-Jan-18 10:57 PM
Arrived: 07-Jan-18 11:57 PM
Distance/Time
Traveled:
95nm/1:00
Distance/Time
To Go:
Arrived

Flight Plot

Page will automatically refresh every two minutes.


Map Options




Map Legend


Flown Route
Filed Route
Departure Airport
Arrival Airport
Navaid (VOR, NDB)
Fix

Horizontal Profiles

Position Reports

Time Latitude Longitude Heading Altitude Ground
Speed
07-Jan-18 22:59 33.935148 -118.392258 83 101ft 17kts
07-Jan-18 23:00 33.935783 -118.386186 84 98ft 18kts
07-Jan-18 23:01 33.936486 -118.382806 9 95ft 0kts
07-Jan-18 23:02 33.936486 -118.382806 9 95ft 0kts
07-Jan-18 23:03 33.936496 -118.391024 263 210ft 73kts
07-Jan-18 23:04 33.933652 -118.416064 260 1129ft 79kts
07-Jan-18 23:05 33.929279 -118.442927 258 1897ft 84kts
07-Jan-18 23:06 33.924325 -118.471168 260 2560ft 90kts
07-Jan-18 23:07 33.919698 -118.503628 258 2849ft 106kts
07-Jan-18 23:08 33.893877 -118.518025 182 2788ft 113kts
07-Jan-18 23:09 33.863304 -118.518296 181 2809ft 108kts
07-Jan-18 23:10 33.832831 -118.518786 181 2881ft 111kts
07-Jan-18 23:11 33.801143 -118.519543 181 2858ft 117kts
07-Jan-18 23:12 33.768512 -118.520219 181 2838ft 119kts
07-Jan-18 23:13 33.734876 -118.521342 178 2827ft 122kts
07-Jan-18 23:14 33.704852 -118.504617 144 2894ft 118kts
07-Jan-18 23:15 33.683192 -118.477092 127 3248ft 110kts
07-Jan-18 23:16 33.666074 -118.446412 116 3652ft 109kts
07-Jan-18 23:17 33.655085 -118.412246 108 4078ft 109kts
07-Jan-18 23:18 33.643343 -118.378988 117 4550ft 107kts
07-Jan-18 23:19 33.630424 -118.347090 115 5028ft 105kts
07-Jan-18 23:20 33.617544 -118.314609 115 5378ft 113kts
07-Jan-18 23:21 33.603004 -118.280671 119 5410ft 114kts
07-Jan-18 23:22 33.586118 -118.248377 124 5444ft 115kts
07-Jan-18 23:23 33.568309 -118.216508 118 5478ft 117kts
07-Jan-18 23:24 33.551489 -118.182752 121 5493ft 118kts
07-Jan-18 23:25 33.532861 -118.149817 122 5483ft 120kts
07-Jan-18 23:26 33.514256 -118.113524 118 5429ft 127kts
07-Jan-18 23:27 33.495420 -118.077522 123 5439ft 127kts
07-Jan-18 23:28 33.478858 -118.040133 106 5447ft 128kts
07-Jan-18 23:29 33.467603 -117.999092 104 5448ft 131kts
07-Jan-18 23:30 33.456389 -117.957729 105 5467ft 131kts
07-Jan-18 23:31 33.445841 -117.915900 109 5474ft 132kts
07-Jan-18 23:32 33.433867 -117.873703 106 5420ft 134kts
07-Jan-18 23:33 33.422216 -117.831540 104 5403ft 133kts
07-Jan-18 23:34 33.413606 -117.790195 103 5413ft 121kts
07-Jan-18 23:35 33.405131 -117.751445 100 5363ft 119kts
07-Jan-18 23:36 33.396641 -117.713962 121 5385ft 111kts
07-Jan-18 23:37 33.381063 -117.681799 128 5347ft 112kts
07-Jan-18 23:38 33.359849 -117.654995 139 5406ft 111kts
07-Jan-18 23:39 33.334753 -117.633038 146 5427ft 113kts
07-Jan-18 23:40 33.310583 -117.608524 129 5407ft 117kts
07-Jan-18 23:41 33.293490 -117.575184 121 5411ft 118kts
07-Jan-18 23:42 33.274738 -117.543101 126 5396ft 120kts
07-Jan-18 23:43 33.254539 -117.510818 125 5343ft 124kts
07-Jan-18 23:44 33.233046 -117.477078 125 4879ft 127kts
07-Jan-18 23:45 33.210801 -117.443749 130 4401ft 129kts
07-Jan-18 23:46 33.187517 -117.411861 128 3996ft 128kts
07-Jan-18 23:47 33.162781 -117.381575 142 3708ft 123kts
07-Jan-18 23:48 33.133866 -117.359900 153 3612ft 126kts
07-Jan-18 23:49 33.102135 -117.345434 161 3458ft 117kts
07-Jan-18 23:50 33.071744 -117.332503 160 3490ft 117kts
07-Jan-18 23:51 33.039455 -117.320764 163 3512ft 125kts
07-Jan-18 23:52 33.004799 -117.308178 163 3417ft 133kts
07-Jan-18 23:53 32.970271 -117.294741 164 3470ft 130kts
07-Jan-18 23:54 32.935276 -117.281938 162 3425ft 133kts
07-Jan-18 23:55 32.902606 -117.269427 163 3376ft 121kts
07-Jan-18 23:56 32.869665 -117.257935 163 2985ft 129kts
07-Jan-18 23:57 32.835912 -117.244134 164 2613ft 126kts
07-Jan-18 23:58 32.802479 -117.232867 164 2007ft 121kts
07-Jan-18 23:59 32.771853 -117.220777 153 1366ft 113kts
08-Jan-18 00:00 32.751542 -117.199224 122 1018ft 89kts
08-Jan-18 00:01 32.745169 -117.173699 97 762ft 75kts
08-Jan-18 00:02 32.729913 -117.171298 258 269ft 71kts
08-Jan-18 00:03 32.733197 -117.187674 297 16ft 17kts
08-Jan-18 00:04 32.733621 -117.185196 106 16ft 14kts
08-Jan-18 00:05 32.734312 -117.183143 87 16ft 0kts

Navigation Log

Ident Type
1. KLAX Airport
2. KSAN Airport